sensor_id;sensor_type;location;lat;lon;timestamp;temperature;humidity
16995;DHT22;8614;48.522;9.206;2023-09-07T00:01:48;14.80;99.90
16995;DHT22;8614;48.522;9.206;2023-09-07T00:04:18;14.80;99.90
16995;DHT22;8614;48.522;9.206;2023-09-07T00:06:45;14.70;99.90
16995;DHT22;8614;48.522;9.206;2023-09-07T00:09:12;14.70;99.90
16995;DHT22;8614;48.522;9.206;2023-09-07T00:11:39;14.70;99.90
16995;DHT22;8614;48.522;9.206;2023-09-07T00:14:05;14.70;99.90
16995;DHT22;8614;48.522;9.206;2023-09-07T00:16:34;14.70;99.90
16995;DHT22;8614;48.522;9.206;2023-09-07T00:19:03;14.70;99.90
16995;DHT22;8614;48.522;9.206;2023-09-07T00:21:30;14.60;99.90
16995;DHT22;8614;48.522;9.206;2023-09-07T00:23:57;14.60;99.90
16995;DHT22;8614;48.522;9.206;2023-09-07T00:26:24;14.60;99.90
16995;DHT22;8614;48.522;9.206;2023-09-07T00:28:51;14.60;99.90
16995;DHT22;8614;48.522;9.206;2023-09-07T00:31:17;14.50;99.90
16995;DHT22;8614;48.522;9.206;2023-09-07T00:33:46;14.40;99.90
16995;DHT22;8614;48.522;9.206;2023-09-07T00:36:12;14.40;99.90
16995;DHT22;8614;48.522;9.206;2023-09-07T00:38:39;14.40;99.90
16995;DHT22;8614;48.522;9.206;2023-09-07T00:41:07;14.40;99.90
16995;DHT22;8614;48.522;9.206;2023-09-07T00:43:33;14.40;99.90
16995;DHT22;8614;48.522;9.206;2023-09-07T00:46:00;14.40;99.90
16995;DHT22;8614;48.522;9.206;2023-09-07T00:48:27;14.30;99.90
16995;DHT22;8614;48.522;9.206;2023-09-07T00:50:56;14.30;99.90
16995;DHT22;8614;48.522;9.206;2023-09-07T00:53:23;14.30;99.90
16995;DHT22;8614;48.522;9.206;2023-09-07T00:55:50;14.30;99.90
16995;DHT22;8614;48.522;9.206;2023-09-07T00:58:17;14.40;99.90
16995;DHT22;8614;48.522;9.206;2023-09-07T01:00:44;14.40;99.90
16995;DHT22;8614;48.522;9.206;2023-09-07T01:03:11;14.30;99.90
16995;DHT22;8614;48.522;9.206;2023-09-07T01:05:43;14.30;99.90
16995;DHT22;8614;48.522;9.206;2023-09-07T01:08:24;14.30;99.90
16995;DHT22;8614;48.522;9.206;2023-09-07T01:10:51;14.20;99.90
16995;DHT22;8614;48.522;9.206;2023-09-07T01:13:18;14.20;99.90
16995;DHT22;8614;48.522;9.206;2023-09-07T01:15:45;14.30;99.90
16995;DHT22;8614;48.522;9.206;2023-09-07T01:18:13;14.30;99.90
16995;DHT22;8614;48.522;9.206;2023-09-07T01:20:41;14.20;99.90
16995;DHT22;8614;48.522;9.206;2023-09-07T01:23:11;14.20;99.90
16995;DHT22;8614;48.522;9.206;2023-09-07T01:25:39;14.20;99.90
16995;DHT22;8614;48.522;9.206;2023-09-07T01:28:07;14.20;99.90
16995;DHT22;8614;48.522;9.206;2023-09-07T01:30:35;14.10;99.90
16995;DHT22;8614;48.522;9.206;2023-09-07T01:33:02;14.10;99.90
16995;DHT22;8614;48.522;9.206;2023-09-07T01:35:30;14.10;99.90
16995;DHT22;8614;48.522;9.206;2023-09-07T01:37:58;14.10;99.90
16995;DHT22;8614;48.522;9.206;2023-09-07T01:40:26;14.00;99.90
16995;DHT22;8614;48.522;9.206;2023-09-07T01:42:53;14.00;99.90
16995;DHT22;8614;48.522;9.206;2023-09-07T01:45:19;14.00;99.90
16995;DHT22;8614;48.522;9.206;2023-09-07T01:47:47;14.00;99.90
16995;DHT22;8614;48.522;9.206;2023-09-07T01:50:14;13.90;99.90
16995;DHT22;8614;48.522;9.206;2023-09-07T01:52:41;13.90;99.90
16995;DHT22;8614;48.522;9.206;2023-09-07T01:55:08;13.90;99.90
16995;DHT22;8614;48.522;9.206;2023-09-07T01:57:37;13.90;99.90
16995;DHT22;8614;48.522;9.206;2023-09-07T02:00:05;13.80;99.90
16995;DHT22;8614;48.522;9.206;2023-09-07T02:02:38;13.70;99.90
16995;DHT22;8614;48.522;9.206;2023-09-07T02:05:06;13.70;99.90
16995;DHT22;8614;48.522;9.206;2023-09-07T02:07:33;13.70;99.90
16995;DHT22;8614;48.522;9.206;2023-09-07T02:10:00;13.70;99.90
16995;DHT22;8614;48.522;9.206;2023-09-07T02:12:28;13.70;99.90
16995;DHT22;8614;48.522;9.206;2023-09-07T02:14:58;13.70;99.90
16995;DHT22;8614;48.522;9.206;2023-09-07T02:17:25;13.60;99.90
16995;DHT22;8614;48.522;9.206;2023-09-07T02:19:52;13.60;99.90
16995;DHT22;8614;48.522;9.206;2023-09-07T02:22:19;13.50;99.90
16995;DHT22;8614;48.522;9.206;2023-09-07T02:24:46;13.50;99.90
16995;DHT22;8614;48.522;9.206;2023-09-07T02:27:13;13.50;99.90
16995;DHT22;8614;48.522;9.206;2023-09-07T02:29:40;13.50;99.90
16995;DHT22;8614;48.522;9.206;2023-09-07T02:32:08;13.50;99.90
16995;DHT22;8614;48.522;9.206;2023-09-07T02:34:35;13.50;99.90
16995;DHT22;8614;48.522;9.206;2023-09-07T02:37:03;13.50;99.90
16995;DHT22;8614;48.522;9.206;2023-09-07T02:39:30;13.50;99.90
16995;DHT22;8614;48.522;9.206;2023-09-07T02:41:57;13.50;99.90
16995;DHT22;8614;48.522;9.206;2023-09-07T02:44:24;13.50;99.90
16995;DHT22;8614;48.522;9.206;2023-09-07T02:46:51;13.40;99.90
16995;DHT22;8614;48.522;9.206;2023-09-07T02:49:19;13.40;99.90
16995;DHT22;8614;48.522;9.206;2023-09-07T02:51:48;13.40;99.90
16995;DHT22;8614;48.522;9.206;2023-09-07T02:54:14;13.40;99.90
16995;DHT22;8614;48.522;9.206;2023-09-07T02:56:41;13.30;99.90
16995;DHT22;8614;48.522;9.206;2023-09-07T02:59:09;13.20;99.90
16995;DHT22;8614;48.522;9.206;2023-09-07T03:01:38;13.20;99.90
16995;DHT22;8614;48.522;9.206;2023-09-07T03:04:05;13.10;99.90
16995;DHT22;8614;48.522;9.206;2023-09-07T03:06:34;13.10;99.90
16995;DHT22;8614;48.522;9.206;2023-09-07T03:09:01;13.10;99.90
16995;DHT22;8614;48.522;9.206;2023-09-07T03:11:32;13.10;99.90
16995;DHT22;8614;48.522;9.206;2023-09-07T03:14:01;13.00;99.90
16995;DHT22;8614;48.522;9.206;2023-09-07T03:16:29;13.00;99.90
16995;DHT22;8614;48.522;9.206;2023-09-07T03:18:57;13.00;99.90
16995;DHT22;8614;48.522;9.206;2023-09-07T03:21:24;12.90;99.90
16995;DHT22;8614;48.522;9.206;2023-09-07T03:23:57;12.90;99.90
16995;DHT22;8614;48.522;9.206;2023-09-07T03:26:24;12.90;99.90
16995;DHT22;8614;48.522;9.206;2023-09-07T03:28:51;12.80;99.90
16995;DHT22;8614;48.522;9.206;2023-09-07T03:31:18;12.80;99.90
16995;DHT22;8614;48.522;9.206;2023-09-07T03:33:47;12.80;99.90
16995;DHT22;8614;48.522;9.206;2023-09-07T03:36:14;12.80;99.90
16995;DHT22;8614;48.522;9.206;2023-09-07T03:38:42;12.80;99.90
16995;DHT22;8614;48.522;9.206;2023-09-07T03:41:10;12.80;99.90
16995;DHT22;8614;48.522;9.206;2023-09-07T03:43:37;12.70;99.90
16995;DHT22;8614;48.522;9.206;2023-09-07T03:46:04;12.70;99.90
16995;DHT22;8614;48.522;9.206;2023-09-07T03:48:31;12.70;99.90
16995;DHT22;8614;48.522;9.206;2023-09-07T03:50:57;12.70;99.90
16995;DHT22;8614;48.522;9.206;2023-09-07T03:53:24;12.60;99.90
16995;DHT22;8614;48.522;9.206;2023-09-07T03:55:51;12.60;99.90
16995;DHT22;8614;48.522;9.206;2023-09-07T03:58:21;12.60;99.90
16995;DHT22;8614;48.522;9.206;2023-09-07T04:00:49;12.60;99.90
16995;DHT22;8614;48.522;9.206;2023-09-07T04:03:16;12.60;99.90
16995;DHT22;8614;48.522;9.206;2023-09-07T04:05:43;12.60;99.90
16995;DHT22;8614;48.522;9.206;2023-09-07T04:08:11;12.60;99.90
16995;DHT22;8614;48.522;9.206;2023-09-07T04:10:38;12.50;99.90
16995;DHT22;8614;48.522;9.206;2023-09-07T04:13:04;12.50;99.90
16995;DHT22;8614;48.522;9.206;2023-09-07T04:15:33;12.50;99.90
16995;DHT22;8614;48.522;9.206;2023-09-07T04:18:00;12.40;99.90
16995;DHT22;8614;48.522;9.206;2023-09-07T04:20:26;12.40;99.90
16995;DHT22;8614;48.522;9.206;2023-09-07T04:22:55;12.40;99.90
16995;DHT22;8614;48.522;9.206;2023-09-07T04:25:22;12.40;99.90
16995;DHT22;8614;48.522;9.206;2023-09-07T04:27:49;12.40;99.90
16995;DHT22;8614;48.522;9.206;2023-09-07T04:30:16;12.30;99.90
16995;DHT22;8614;48.522;9.206;2023-09-07T04:32:44;12.30;99.90
16995;DHT22;8614;48.522;9.206;2023-09-07T04:35:11;12.20;99.90
16995;DHT22;8614;48.522;9.206;2023-09-07T04:37:41;12.20;99.90
16995;DHT22;8614;48.522;9.206;2023-09-07T04:40:09;12.20;99.90
16995;DHT22;8614;48.522;9.206;2023-09-07T04:42:36;12.20;99.90
16995;DHT22;8614;48.522;9.206;2023-09-07T04:45:04;12.20;99.90
16995;DHT22;8614;48.522;9.206;2023-09-07T04:47:31;12.20;99.90
16995;DHT22;8614;48.522;9.206;2023-09-07T04:50:00;12.20;99.90
16995;DHT22;8614;48.522;9.206;2023-09-07T04:52:27;12.20;99.90
16995;DHT22;8614;48.522;9.206;2023-09-07T04:54:53;12.10;99.90
16995;DHT22;8614;48.522;9.206;2023-09-07T04:57:20;12.10;99.90
16995;DHT22;8614;48.522;9.206;2023-09-07T04:59:48;12.10;99.90
16995;DHT22;8614;48.522;9.206;2023-09-07T05:02:14;12.10;99.90
16995;DHT22;8614;48.522;9.206;2023-09-07T05:04:42;12.10;99.90
16995;DHT22;8614;48.522;9.206;2023-09-07T05:07:11;12.20;99.90
16995;DHT22;8614;48.522;9.206;2023-09-07T05:09:38;12.20;99.90
16995;DHT22;8614;48.522;9.206;2023-09-07T05:12:05;12.20;99.90
16995;DHT22;8614;48.522;9.206;2023-09-07T05:14:32;12.20;99.90
16995;DHT22;8614;48.522;9.206;2023-09-07T05:16:59;12.30;99.90
16995;DHT22;8614;48.522;9.206;2023-09-07T05:19:27;12.30;99.90
16995;DHT22;8614;48.522;9.206;2023-09-07T05:21:54;12.30;99.90
16995;DHT22;8614;48.522;9.206;2023-09-07T05:24:22;12.40;99.90
16995;DHT22;8614;48.522;9.206;2023-09-07T05:26:49;12.40;99.90
16995;DHT22;8614;48.522;9.206;2023-09-07T05:29:17;12.50;99.90
16995;DHT22;8614;48.522;9.206;2023-09-07T05:31:46;12.50;99.90
16995;DHT22;8614;48.522;9.206;2023-09-07T05:34:12;12.60;99.90
16995;DHT22;8614;48.522;9.206;2023-09-07T05:36:39;12.70;99.90
16995;DHT22;8614;48.522;9.206;2023-09-07T05:39:06;12.80;99.90
16995;DHT22;8614;48.522;9.206;2023-09-07T05:41:34;12.90;99.90
16995;DHT22;8614;48.522;9.206;2023-09-07T05:44:01;13.00;99.90
16995;DHT22;8614;48.522;9.206;2023-09-07T05:46:28;13.10;99.90
16995;DHT22;8614;48.522;9.206;2023-09-07T05:48:55;13.30;99.90
16995;DHT22;8614;48.522;9.206;2023-09-07T05:51:22;13.50;99.90
16995;DHT22;8614;48.522;9.206;2023-09-07T05:53:49;13.60;99.90
16995;DHT22;8614;48.522;9.206;2023-09-07T05:56:16;13.70;99.90
16995;DHT22;8614;48.522;9.206;2023-09-07T05:58:44;13.80;99.90
16995;DHT22;8614;48.522;9.206;2023-09-07T06:01:11;13.90;99.90
16995;DHT22;8614;48.522;9.206;2023-09-07T06:03:38;14.00;99.90
16995;DHT22;8614;48.522;9.206;2023-09-07T06:06:16;14.10;99.90
16995;DHT22;8614;48.522;9.206;2023-09-07T06:08:43;14.30;99.90
16995;DHT22;8614;48.522;9.206;2023-09-07T06:11:10;14.40;99.90
16995;DHT22;8614;48.522;9.206;2023-09-07T06:13:37;14.50;99.90
16995;DHT22;8614;48.522;9.206;2023-09-07T06:16:05;14.60;99.90
16995;DHT22;8614;48.522;9.206;2023-09-07T06:18:32;14.70;99.90
16995;DHT22;8614;48.522;9.206;2023-09-07T06:20:59;14.80;99.90
16995;DHT22;8614;48.522;9.206;2023-09-07T06:23:26;14.80;99.90
16995;DHT22;8614;48.522;9.206;2023-09-07T06:25:53;14.90;99.90
16995;DHT22;8614;48.522;9.206;2023-09-07T06:28:20;15.00;99.90
16995;DHT22;8614;48.522;9.206;2023-09-07T06:30:47;15.00;99.90
16995;DHT22;8614;48.522;9.206;2023-09-07T06:33:17;15.00;99.90
16995;DHT22;8614;48.522;9.206;2023-09-07T06:35:44;15.10;99.90
16995;DHT22;8614;48.522;9.206;2023-09-07T06:38:11;15.10;99.90
16995;DHT22;8614;48.522;9.206;2023-09-07T06:40:38;15.20;99.90
16995;DHT22;8614;48.522;9.206;2023-09-07T06:43:05;15.30;99.90
16995;DHT22;8614;48.522;9.206;2023-09-07T06:45:34;15.30;99.90
16995;DHT22;8614;48.522;9.206;2023-09-07T06:48:01;15.40;99.90
16995;DHT22;8614;48.522;9.206;2023-09-07T06:50:29;15.50;99.90
16995;DHT22;8614;48.522;9.206;2023-09-07T06:52:56;15.60;99.90
16995;DHT22;8614;48.522;9.206;2023-09-07T06:55:23;15.70;99.90
16995;DHT22;8614;48.522;9.206;2023-09-07T06:57:50;15.80;99.90
16995;DHT22;8614;48.522;9.206;2023-09-07T07:00:17;15.90;99.90
16995;DHT22;8614;48.522;9.206;2023-09-07T07:02:44;16.00;99.90
16995;DHT22;8614;48.522;9.206;2023-09-07T07:05:11;16.10;99.90
16995;DHT22;8614;48.522;9.206;2023-09-07T07:07:40;16.20;99.90
16995;DHT22;8614;48.522;9.206;2023-09-07T07:10:07;16.40;99.90
16995;DHT22;8614;48.522;9.206;2023-09-07T07:12:35;16.50;99.90
16995;DHT22;8614;48.522;9.206;2023-09-07T07:15:05;16.60;99.90
16995;DHT22;8614;48.522;9.206;2023-09-07T07:17:33;16.90;99.90
16995;DHT22;8614;48.522;9.206;2023-09-07T07:20:00;17.20;99.90
16995;DHT22;8614;48.522;9.206;2023-09-07T07:22:26;17.70;99.90
16995;DHT22;8614;48.522;9.206;2023-09-07T07:24:55;18.20;99.90
16995;DHT22;8614;48.522;9.206;2023-09-07T07:27:22;18.80;99.90
16995;DHT22;8614;48.522;9.206;2023-09-07T07:29:50;19.30;99.90
16995;DHT22;8614;48.522;9.206;2023-09-07T07:32:18;19.90;99.90
16995;DHT22;8614;48.522;9.206;2023-09-07T07:34:46;20.40;99.90
16995;DHT22;8614;48.522;9.206;2023-09-07T07:37:13;21.00;99.90
16995;DHT22;8614;48.522;9.206;2023-09-07T07:39:40;21.30;99.90
16995;DHT22;8614;48.522;9.206;2023-09-07T07:42:09;21.70;99.90
16995;DHT22;8614;48.522;9.206;2023-09-07T07:44:35;22.00;99.90
16995;DHT22;8614;48.522;9.206;2023-09-07T07:47:03;22.40;99.90
16995;DHT22;8614;48.522;9.206;2023-09-07T07:49:29;22.80;99.90
16995;DHT22;8614;48.522;9.206;2023-09-07T07:51:58;23.10;99.90
16995;DHT22;8614;48.522;9.206;2023-09-07T07:54:25;23.30;99.90
16995;DHT22;8614;48.522;9.206;2023-09-07T07:56:54;23.20;99.90
16995;DHT22;8614;48.522;9.206;2023-09-07T07:59:23;23.50;99.90
16995;DHT22;8614;48.522;9.206;2023-09-07T08:01:50;23.80;99.90
16995;DHT22;8614;48.522;9.206;2023-09-07T08:04:17;24.10;99.90
16995;DHT22;8614;48.522;9.206;2023-09-07T08:06:46;24.20;99.90
16995;DHT22;8614;48.522;9.206;2023-09-07T08:09:15;24.20;99.90
16995;DHT22;8614;48.522;9.206;2023-09-07T08:11:42;24.40;99.90
16995;DHT22;8614;48.522;9.206;2023-09-07T08:14:10;24.60;99.90
16995;DHT22;8614;48.522;9.206;2023-09-07T08:16:39;24.90;99.90
16995;DHT22;8614;48.522;9.206;2023-09-07T08:19:07;25.10;99.90
16995;DHT22;8614;48.522;9.206;2023-09-07T08:21:33;24.90;99.90
16995;DHT22;8614;48.522;9.206;2023-09-07T08:24:01;25.10;99.90
16995;DHT22;8614;48.522;9.206;2023-09-07T08:26:30;25.10;99.90
16995;DHT22;8614;48.522;9.206;2023-09-07T08:28:57;25.10;99.90
16995;DHT22;8614;48.522;9.206;2023-09-07T08:31:23;25.30;99.90
16995;DHT22;8614;48.522;9.206;2023-09-07T08:33:52;25.50;99.90
16995;DHT22;8614;48.522;9.206;2023-09-07T08:36:20;25.80;99.90
16995;DHT22;8614;48.522;9.206;2023-09-07T08:38:48;25.90;99.90
16995;DHT22;8614;48.522;9.206;2023-09-07T08:41:14;26.00;99.90
16995;DHT22;8614;48.522;9.206;2023-09-07T08:43:45;26.10;99.90
16995;DHT22;8614;48.522;9.206;2023-09-07T08:46:14;26.20;99.90
16995;DHT22;8614;48.522;9.206;2023-09-07T08:48:42;26.00;99.90
16995;DHT22;8614;48.522;9.206;2023-09-07T08:51:12;25.80;99.90
16995;DHT22;8614;48.522;9.206;2023-09-07T08:53:40;26.00;99.90
16995;DHT22;8614;48.522;9.206;2023-09-07T08:56:07;26.20;99.90
16995;DHT22;8614;48.522;9.206;2023-09-07T08:58:35;26.10;99.90
16995;DHT22;8614;48.522;9.206;2023-09-07T09:01:02;26.00;99.90
16995;DHT22;8614;48.522;9.206;2023-09-07T09:03:29;26.10;99.90
16995;DHT22;8614;48.522;9.206;2023-09-07T09:05:56;26.20;99.90
16995;DHT22;8614;48.522;9.206;2023-09-07T09:08:24;26.10;99.90
16995;DHT22;8614;48.522;9.206;2023-09-07T09:10:59;25.80;99.90
16995;DHT22;8614;48.522;9.206;2023-09-07T09:13:30;25.70;99.90
16995;DHT22;8614;48.522;9.206;2023-09-07T09:15:59;25.60;99.90
16995;DHT22;8614;48.522;9.206;2023-09-07T09:18:26;25.70;99.90
16995;DHT22;8614;48.522;9.206;2023-09-07T09:20:54;26.00;99.90
16995;DHT22;8614;48.522;9.206;2023-09-07T09:23:21;26.30;99.90
16995;DHT22;8614;48.522;9.206;2023-09-07T09:25:49;26.20;99.90
16995;DHT22;8614;48.522;9.206;2023-09-07T09:28:16;26.30;99.90
16995;DHT22;8614;48.522;9.206;2023-09-07T09:30:43;26.40;99.90
16995;DHT22;8614;48.522;9.206;2023-09-07T09:33:11;26.20;99.90
16995;DHT22;8614;48.522;9.206;2023-09-07T09:35:37;26.50;99.90
16995;DHT22;8614;48.522;9.206;2023-09-07T09:38:04;26.70;99.90
16995;DHT22;8614;48.522;9.206;2023-09-07T09:40:31;26.90;99.90
16995;DHT22;8614;48.522;9.206;2023-09-07T09:43:02;26.90;99.90
16995;DHT22;8614;48.522;9.206;2023-09-07T09:45:29;26.80;99.90
16995;DHT22;8614;48.522;9.206;2023-09-07T09:47:58;26.60;99.90
16995;DHT22;8614;48.522;9.206;2023-09-07T09:50:26;26.70;99.90
16995;DHT22;8614;48.522;9.206;2023-09-07T09:52:53;26.80;99.90
16995;DHT22;8614;48.522;9.206;2023-09-07T09:55:20;27.00;99.90
16995;DHT22;8614;48.522;9.206;2023-09-07T09:57:48;27.20;99.90
16995;DHT22;8614;48.522;9.206;2023-09-07T10:00:17;27.30;99.90
16995;DHT22;8614;48.522;9.206;2023-09-07T10:02:57;27.20;99.90
16995;DHT22;8614;48.522;9.206;2023-09-07T10:05:25;27.20;99.90
16995;DHT22;8614;48.522;9.206;2023-09-07T10:07:52;27.20;99.90
16995;DHT22;8614;48.522;9.206;2023-09-07T10:10:20;27.20;99.90
16995;DHT22;8614;48.522;9.206;2023-09-07T10:12:52;27.10;99.90
16995;DHT22;8614;48.522;9.206;2023-09-07T10:15:22;26.90;99.90
16995;DHT22;8614;48.522;9.206;2023-09-07T10:17:49;26.50;99.90
16995;DHT22;8614;48.522;9.206;2023-09-07T10:20:19;26.50;99.90
16995;DHT22;8614;48.522;9.206;2023-09-07T10:22:49;26.30;99.90
16995;DHT22;8614;48.522;9.206;2023-09-07T10:25:22;26.10;99.90
16995;DHT22;8614;48.522;9.206;2023-09-07T10:27:49;26.00;99.90
16995;DHT22;8614;48.522;9.206;2023-09-07T10:30:16;26.10;99.90
16995;DHT22;8614;48.522;9.206;2023-09-07T10:32:50;26.10;99.90
16995;DHT22;8614;48.522;9.206;2023-09-07T10:35:19;26.00;99.90
16995;DHT22;8614;48.522;9.206;2023-09-07T10:37:47;25.90;99.90
16995;DHT22;8614;48.522;9.206;2023-09-07T10:40:19;25.90;99.90
16995;DHT22;8614;48.522;9.206;2023-09-07T10:42:46;26.00;99.90
16995;DHT22;8614;48.522;9.206;2023-09-07T10:45:15;26.10;99.90
16995;DHT22;8614;48.522;9.206;2023-09-07T10:47:43;26.00;99.90
16995;DHT22;8614;48.522;9.206;2023-09-07T10:50:12;25.90;99.90
16995;DHT22;8614;48.522;9.206;2023-09-07T10:52:39;25.80;99.90
16995;DHT22;8614;48.522;9.206;2023-09-07T10:55:08;25.70;99.90
16995;DHT22;8614;48.522;9.206;2023-09-07T10:57:42;25.80;99.90
16995;DHT22;8614;48.522;9.206;2023-09-07T11:00:11;25.90;99.90
16995;DHT22;8614;48.522;9.206;2023-09-07T11:02:39;25.80;99.90
16995;DHT22;8614;48.522;9.206;2023-09-07T11:05:07;25.50;99.90
16995;DHT22;8614;48.522;9.206;2023-09-07T11:07:35;25.40;99.90
16995;DHT22;8614;48.522;9.206;2023-09-07T11:10:05;25.50;99.90
16995;DHT22;8614;48.522;9.206;2023-09-07T11:12:36;25.60;99.90
16995;DHT22;8614;48.522;9.206;2023-09-07T11:15:04;25.60;99.90
16995;DHT22;8614;48.522;9.206;2023-09-07T11:17:31;25.50;99.90
16995;DHT22;8614;48.522;9.206;2023-09-07T11:19:57;25.60;99.90
16995;DHT22;8614;48.522;9.206;2023-09-07T11:22:24;25.70;99.90
16995;DHT22;8614;48.522;9.206;2023-09-07T11:24:52;25.60;99.90
16995;DHT22;8614;48.522;9.206;2023-09-07T11:27:19;25.60;99.90
16995;DHT22;8614;48.522;9.206;2023-09-07T11:29:51;25.60;99.90
16995;DHT22;8614;48.522;9.206;2023-09-07T11:32:19;25.70;99.90
16995;DHT22;8614;48.522;9.206;2023-09-07T11:34:48;25.70;99.90
16995;DHT22;8614;48.522;9.206;2023-09-07T11:37:16;25.70;99.90
16995;DHT22;8614;48.522;9.206;2023-09-07T11:39:43;25.80;99.90
16995;DHT22;8614;48.522;9.206;2023-09-07T11:42:11;25.90;99.90
16995;DHT22;8614;48.522;9.206;2023-09-07T11:44:38;25.90;99.90
16995;DHT22;8614;48.522;9.206;2023-09-07T11:47:05;25.90;99.90
16995;DHT22;8614;48.522;9.206;2023-09-07T11:49:32;26.00;99.90
16995;DHT22;8614;48.522;9.206;2023-09-07T11:51:59;25.90;99.90
16995;DHT22;8614;48.522;9.206;2023-09-07T11:54:25;25.90;99.90
16995;DHT22;8614;48.522;9.206;2023-09-07T11:56:52;25.90;99.90
16995;DHT22;8614;48.522;9.206;2023-09-07T11:59:21;26.00;99.90
16995;DHT22;8614;48.522;9.206;2023-09-07T12:01:47;25.90;99.90
16995;DHT22;8614;48.522;9.206;2023-09-07T12:04:15;25.90;99.90
16995;DHT22;8614;48.522;9.206;2023-09-07T12:06:42;26.00;99.90
16995;DHT22;8614;48.522;9.206;2023-09-07T12:09:09;26.00;99.90
16995;DHT22;8614;48.522;9.206;2023-09-07T12:11:36;26.00;99.90
16995;DHT22;8614;48.522;9.206;2023-09-07T12:14:03;25.90;99.90
16995;DHT22;8614;48.522;9.206;2023-09-07T12:16:32;26.00;99.90
16995;DHT22;8614;48.522;9.206;2023-09-07T12:18:58;26.00;99.90
16995;DHT22;8614;48.522;9.206;2023-09-07T12:21:25;26.00;99.90
16995;DHT22;8614;48.522;9.206;2023-09-07T12:23:52;26.00;99.90
16995;DHT22;8614;48.522;9.206;2023-09-07T12:26:19;26.00;99.90
16995;DHT22;8614;48.522;9.206;2023-09-07T12:28:46;26.00;99.90
16995;DHT22;8614;48.522;9.206;2023-09-07T12:31:13;26.10;99.90
16995;DHT22;8614;48.522;9.206;2023-09-07T12:33:42;26.10;99.90
16995;DHT22;8614;48.522;9.206;2023-09-07T12:36:08;26.10;99.90
16995;DHT22;8614;48.522;9.206;2023-09-07T12:38:37;26.20;99.90
16995;DHT22;8614;48.522;9.206;2023-09-07T12:41:04;26.20;99.90
16995;DHT22;8614;48.522;9.206;2023-09-07T12:43:31;26.30;99.90
16995;DHT22;8614;48.522;9.206;2023-09-07T12:45:57;26.30;99.90
16995;DHT22;8614;48.522;9.206;2023-09-07T12:48:25;26.30;99.90
16995;DHT22;8614;48.522;9.206;2023-09-07T12:50:53;26.30;99.90
16995;DHT22;8614;48.522;9.206;2023-09-07T12:53:20;26.30;99.90
16995;DHT22;8614;48.522;9.206;2023-09-07T12:55:51;26.30;99.90
16995;DHT22;8614;48.522;9.206;2023-09-07T12:58:18;26.30;99.90
16995;DHT22;8614;48.522;9.206;2023-09-07T13:00:44;26.30;99.90
16995;DHT22;8614;48.522;9.206;2023-09-07T13:03:13;26.30;99.90
16995;DHT22;8614;48.522;9.206;2023-09-07T13:05:40;26.30;99.90
16995;DHT22;8614;48.522;9.206;2023-09-07T13:08:08;26.30;99.90
16995;DHT22;8614;48.522;9.206;2023-09-07T13:10:35;26.40;99.90
16995;DHT22;8614;48.522;9.206;2023-09-07T13:13:02;26.50;99.90
16995;DHT22;8614;48.522;9.206;2023-09-07T13:15:29;26.50;99.90
16995;DHT22;8614;48.522;9.206;2023-09-07T13:17:55;26.50;99.90
16995;DHT22;8614;48.522;9.206;2023-09-07T13:20:22;26.50;99.90
16995;DHT22;8614;48.522;9.206;2023-09-07T13:22:49;26.50;99.90
16995;DHT22;8614;48.522;9.206;2023-09-07T13:25:17;26.60;99.90
16995;DHT22;8614;48.522;9.206;2023-09-07T13:27:44;26.60;99.90
16995;DHT22;8614;48.522;9.206;2023-09-07T13:30:11;26.60;99.90
16995;DHT22;8614;48.522;9.206;2023-09-07T13:32:38;26.70;99.90
16995;DHT22;8614;48.522;9.206;2023-09-07T13:35:05;26.70;99.90
16995;DHT22;8614;48.522;9.206;2023-09-07T13:37:32;26.70;99.90
16995;DHT22;8614;48.522;9.206;2023-09-07T13:40:00;26.70;99.90
16995;DHT22;8614;48.522;9.206;2023-09-07T13:42:30;26.80;99.90
16995;DHT22;8614;48.522;9.206;2023-09-07T13:44:57;26.90;99.90
16995;DHT22;8614;48.522;9.206;2023-09-07T13:47:23;26.90;99.90
16995;DHT22;8614;48.522;9.206;2023-09-07T13:49:59;26.90;99.90
16995;DHT22;8614;48.522;9.206;2023-09-07T13:52:26;26.90;99.90
16995;DHT22;8614;48.522;9.206;2023-09-07T13:54:54;26.90;99.90
16995;DHT22;8614;48.522;9.206;2023-09-07T13:57:27;27.00;99.90
16995;DHT22;8614;48.522;9.206;2023-09-07T13:59:59;27.00;99.90
16995;DHT22;8614;48.522;9.206;2023-09-07T14:02:26;27.00;99.90
16995;DHT22;8614;48.522;9.206;2023-09-07T14:04:59;27.10;99.90
16995;DHT22;8614;48.522;9.206;2023-09-07T14:07:28;27.10;99.90
16995;DHT22;8614;48.522;9.206;2023-09-07T14:09:55;27.10;99.90
16995;DHT22;8614;48.522;9.206;2023-09-07T14:12:25;27.10;99.90
16995;DHT22;8614;48.522;9.206;2023-09-07T14:14:52;27.10;99.90
16995;DHT22;8614;48.522;9.206;2023-09-07T14:17:21;27.10;99.90
16995;DHT22;8614;48.522;9.206;2023-09-07T14:20:10;27.10;99.90
16995;DHT22;8614;48.522;9.206;2023-09-07T14:22:44;27.20;99.90
16995;DHT22;8614;48.522;9.206;2023-09-07T14:25:11;27.20;99.90
16995;DHT22;8614;48.522;9.206;2023-09-07T14:27:39;27.10;99.90
16995;DHT22;8614;48.522;9.206;2023-09-07T14:30:07;27.20;99.90
16995;DHT22;8614;48.522;9.206;2023-09-07T14:32:35;27.10;99.90
16995;DHT22;8614;48.522;9.206;2023-09-07T14:35:02;27.00;99.90
16995;DHT22;8614;48.522;9.206;2023-09-07T14:37:29;27.10;99.90
16995;DHT22;8614;48.522;9.206;2023-09-07T14:39:56;27.10;99.90
16995;DHT22;8614;48.522;9.206;2023-09-07T14:42:24;27.20;99.90
16995;DHT22;8614;48.522;9.206;2023-09-07T14:44:51;27.20;99.90
16995;DHT22;8614;48.522;9.206;2023-09-07T14:47:19;27.20;99.90
16995;DHT22;8614;48.522;9.206;2023-09-07T14:49:52;27.20;99.90
16995;DHT22;8614;48.522;9.206;2023-09-07T14:52:19;27.20;99.90
16995;DHT22;8614;48.522;9.206;2023-09-07T14:54:48;27.30;99.90
16995;DHT22;8614;48.522;9.206;2023-09-07T14:57:15;27.20;99.90
16995;DHT22;8614;48.522;9.206;2023-09-07T14:59:42;27.30;99.90
16995;DHT22;8614;48.522;9.206;2023-09-07T15:02:09;27.30;99.90
16995;DHT22;8614;48.522;9.206;2023-09-07T15:04:36;27.30;99.90
16995;DHT22;8614;48.522;9.206;2023-09-07T15:07:04;27.30;99.90
16995;DHT22;8614;48.522;9.206;2023-09-07T15:09:32;27.20;99.90
16995;DHT22;8614;48.522;9.206;2023-09-07T15:11:59;27.20;99.90
16995;DHT22;8614;48.522;9.206;2023-09-07T15:14:25;27.10;99.90
16995;DHT22;8614;48.522;9.206;2023-09-07T15:16:52;27.10;99.90
16995;DHT22;8614;48.522;9.206;2023-09-07T15:19:19;27.10;99.90
16995;DHT22;8614;48.522;9.206;2023-09-07T15:21:46;27.20;99.90
16995;DHT22;8614;48.522;9.206;2023-09-07T15:24:14;27.10;99.90
16995;DHT22;8614;48.522;9.206;2023-09-07T15:26:42;27.10;99.90
16995;DHT22;8614;48.522;9.206;2023-09-07T15:29:12;27.10;99.90
16995;DHT22;8614;48.522;9.206;2023-09-07T15:32:03;27.20;99.90
16995;DHT22;8614;48.522;9.206;2023-09-07T15:34:31;27.20;99.90
16995;DHT22;8614;48.522;9.206;2023-09-07T15:36:59;27.20;99.90
16995;DHT22;8614;48.522;9.206;2023-09-07T15:39:27;27.20;99.90
16995;DHT22;8614;48.522;9.206;2023-09-07T15:41:54;27.20;99.90
16995;DHT22;8614;48.522;9.206;2023-09-07T15:44:21;27.30;99.90
16995;DHT22;8614;48.522;9.206;2023-09-07T15:46:49;27.30;99.90
16995;DHT22;8614;48.522;9.206;2023-09-07T15:49:22;27.30;99.90